createdAt,value
2023-03-31T00:00:12.298Z,0.00
2023-03-31T00:01:12.248Z,0.00
2023-03-31T00:02:12.244Z,0.00
2023-03-31T00:03:12.328Z,0.00
2023-03-31T00:04:12.407Z,0.00
2023-03-31T00:05:12.265Z,0.00
2023-03-31T00:06:12.236Z,0.00
2023-03-31T00:07:12.232Z,0.00
2023-03-31T00:08:12.224Z,0.00
2023-03-31T00:09:12.222Z,0.00
2023-03-31T00:10:18.471Z,0.00
2023-03-31T00:11:12.220Z,0.00
2023-03-31T00:12:12.215Z,0.00
2023-03-31T00:13:12.214Z,0.00
2023-03-31T00:14:12.210Z,0.00
2023-03-31T00:15:12.208Z,0.00
2023-03-31T00:16:12.261Z,0.00
2023-03-31T00:17:12.219Z,0.00
2023-03-31T00:18:12.201Z,0.00
2023-03-31T00:19:12.379Z,0.00
2023-03-31T00:20:12.545Z,0.00
2023-03-31T00:21:12.214Z,0.00
2023-03-31T00:22:12.185Z,0.00
2023-03-31T00:23:12.181Z,0.00
2023-03-31T00:24:12.177Z,0.00
2023-03-31T00:25:12.177Z,0.00
2023-03-31T00:26:12.172Z,0.00
2023-03-31T00:27:12.171Z,0.00
2023-03-31T00:28:12.165Z,0.00
2023-03-31T00:29:12.164Z,0.00
2023-03-31T00:30:12.161Z,0.00
2023-03-31T00:31:12.155Z,0.00
2023-03-31T00:32:12.229Z,0.00
2023-03-31T00:33:12.150Z,0.00
2023-03-31T00:34:12.144Z,0.00
2023-03-31T00:35:12.351Z,0.00
2023-03-31T00:36:12.177Z,0.00
2023-03-31T00:37:12.169Z,0.00
2023-03-31T00:38:12.133Z,0.00
2023-03-31T00:39:12.132Z,0.00
2023-03-31T00:40:12.137Z,0.00
2023-03-31T00:41:12.127Z,0.00
2023-03-31T00:42:12.122Z,0.00
2023-03-31T00:43:12.117Z,0.00
2023-03-31T00:44:12.113Z,0.00
2023-03-31T00:45:12.113Z,0.00
2023-03-31T00:46:12.140Z,0.00
2023-03-31T00:47:12.106Z,0.00
2023-03-31T00:48:12.107Z,0.00
2023-03-31T00:49:12.108Z,0.00
2023-03-31T00:50:12.097Z,0.00
2023-03-31T00:51:12.092Z,0.00
2023-03-31T00:52:12.088Z,0.00
2023-03-31T00:53:12.490Z,0.00
2023-03-31T00:54:12.085Z,0.00
2023-03-31T00:55:12.082Z,0.00
2023-03-31T00:56:12.084Z,0.00
2023-03-31T00:57:12.114Z,0.00
2023-03-31T00:58:12.077Z,0.00
2023-03-31T00:59:12.068Z,0.00
2023-03-31T01:00:12.065Z,0.00
2023-03-31T01:01:12.128Z,0.00
2023-03-31T01:02:12.059Z,0.00
2023-03-31T01:03:12.242Z,0.00
2023-03-31T01:04:12.163Z,0.00
2023-03-31T01:05:12.054Z,0.00
2023-03-31T01:06:12.050Z,0.00
2023-03-31T01:07:12.050Z,0.00
2023-03-31T01:08:12.046Z,0.00
2023-03-31T01:09:12.069Z,0.00
2023-03-31T01:10:12.051Z,0.00
2023-03-31T01:11:12.041Z,0.00
2023-03-31T01:12:12.028Z,0.00
2023-03-31T01:13:12.038Z,0.00
2023-03-31T01:14:12.025Z,0.00
2023-03-31T01:15:12.027Z,0.00
2023-03-31T01:16:12.017Z,0.00
2023-03-31T01:17:12.128Z,0.00
2023-03-31T01:18:12.037Z,0.00
2023-03-31T01:19:12.010Z,0.00
2023-03-31T01:20:12.023Z,0.00
2023-03-31T01:21:12.010Z,0.00
2023-03-31T01:22:12.005Z,0.00
2023-03-31T01:23:11.998Z,0.00
2023-03-31T01:24:11.997Z,0.00
2023-03-31T01:25:12.018Z,0.00
2023-03-31T01:26:11.990Z,0.00
2023-03-31T01:27:11.988Z,0.00
2023-03-31T01:28:11.983Z,0.00
2023-03-31T01:29:11.981Z,0.00
2023-03-31T01:30:11.978Z,0.00
2023-03-31T01:31:12.016Z,0.00
2023-03-31T01:32:11.973Z,0.00
2023-03-31T01:33:12.005Z,0.00
2023-03-31T01:34:11.969Z,0.00
2023-03-31T01:35:11.963Z,0.00
2023-03-31T01:36:12.201Z,0.00
2023-03-31T01:37:11.958Z,0.00
2023-03-31T01:38:11.957Z,0.00
2023-03-31T01:39:11.951Z,0.00
2023-03-31T01:40:11.947Z,0.00
2023-03-31T01:41:11.970Z,0.00
2023-03-31T01:42:11.942Z,0.00
2023-03-31T01:43:11.935Z,0.00
2023-03-31T01:44:11.934Z,0.00
2023-03-31T01:45:11.936Z,0.00
2023-03-31T01:46:11.955Z,0.00
2023-03-31T01:47:11.925Z,0.00
2023-03-31T01:48:11.922Z,0.00
2023-03-31T01:49:11.921Z,0.00
2023-03-31T01:50:11.918Z,0.00
2023-03-31T01:51:11.914Z,0.00
2023-03-31T01:52:11.973Z,0.00
2023-03-31T01:53:11.906Z,0.00
2023-03-31T01:54:11.908Z,0.00
2023-03-31T01:55:11.898Z,0.00
2023-03-31T01:56:11.897Z,0.00
2023-03-31T01:57:12.000Z,0.00
2023-03-31T01:58:11.902Z,0.00
2023-03-31T01:59:11.897Z,0.00
2023-03-31T02:00:11.899Z,0.00
2023-03-31T02:01:11.877Z,0.00
2023-03-31T02:02:11.990Z,0.00
2023-03-31T02:03:11.982Z,0.00
2023-03-31T02:04:11.873Z,0.00
2023-03-31T02:05:11.878Z,0.00
2023-03-31T02:06:11.866Z,0.00
2023-03-31T02:07:11.861Z,0.00
2023-03-31T02:08:11.863Z,0.00
2023-03-31T02:09:11.857Z,0.00
2023-03-31T02:10:11.855Z,0.00
2023-03-31T02:11:11.858Z,0.00
2023-03-31T02:12:11.857Z,0.00
2023-03-31T02:13:11.866Z,0.00
2023-03-31T02:14:11.847Z,0.00
2023-03-31T02:15:11.835Z,0.00
2023-03-31T02:16:11.898Z,0.00
2023-03-31T02:17:11.832Z,0.00
2023-03-31T02:18:11.831Z,0.00
2023-03-31T02:19:11.826Z,0.00
2023-03-31T02:20:11.825Z,0.00
2023-03-31T02:21:11.818Z,0.00
2023-03-31T02:22:11.823Z,0.00
2023-03-31T02:23:11.814Z,0.00
2023-03-31T02:24:11.813Z,0.00
2023-03-31T02:25:11.802Z,0.00
2023-03-31T02:26:11.806Z,0.00
2023-03-31T02:27:11.798Z,0.00
2023-03-31T02:28:11.815Z,0.00
2023-03-31T02:29:11.812Z,0.00
2023-03-31T02:30:11.801Z,0.00
2023-03-31T02:31:11.823Z,0.00
2023-03-31T02:32:11.784Z,0.00
2023-03-31T02:33:11.797Z,0.00
2023-03-31T02:34:11.786Z,0.00
2023-03-31T02:35:11.774Z,0.00
2023-03-31T02:36:11.858Z,0.00
2023-03-31T02:37:11.770Z,0.00
2023-03-31T02:38:11.777Z,0.00
2023-03-31T02:39:11.762Z,0.00
2023-03-31T02:40:11.774Z,0.00
2023-03-31T02:41:11.955Z,0.00
2023-03-31T02:42:11.780Z,0.00
2023-03-31T02:43:11.749Z,0.00
2023-03-31T02:44:11.750Z,0.00
2023-03-31T02:45:11.789Z,0.00
2023-03-31T02:46:11.953Z,0.00
2023-03-31T02:47:11.737Z,0.00
2023-03-31T02:48:11.747Z,0.00
2023-03-31T02:49:11.729Z,0.00
2023-03-31T02:50:11.728Z,0.00
2023-03-31T02:51:11.724Z,0.00
2023-03-31T02:52:11.722Z,0.00
2023-03-31T02:53:11.720Z,0.00
2023-03-31T02:54:11.724Z,0.00
2023-03-31T02:55:11.718Z,0.00
2023-03-31T02:56:11.712Z,0.00
2023-03-31T02:57:11.703Z,0.00
2023-03-31T02:58:11.704Z,0.00
2023-03-31T02:59:11.699Z,0.00
2023-03-31T03:00:11.721Z,0.00
2023-03-31T03:01:11.744Z,0.00
2023-03-31T03:02:11.732Z,0.00
2023-03-31T03:03:11.799Z,0.00
2023-03-31T03:04:11.691Z,0.00
2023-03-31T03:05:11.681Z,0.00
2023-03-31T03:06:11.747Z,0.00
2023-03-31T03:07:11.675Z,0.00
2023-03-31T03:08:11.674Z,0.00
2023-03-31T03:09:11.669Z,0.00
2023-03-31T03:10:11.676Z,0.00
2023-03-31T03:11:11.667Z,0.00
2023-03-31T03:12:11.660Z,0.00
2023-03-31T03:13:11.655Z,0.00
2023-03-31T03:14:11.658Z,0.00
2023-03-31T03:15:11.648Z,0.00
2023-03-31T03:16:11.693Z,0.00
2023-03-31T03:17:11.671Z,0.00
2023-03-31T03:18:11.709Z,0.00
2023-03-31T03:19:11.642Z,0.00
2023-03-31T03:20:11.666Z,0.00
2023-03-31T03:21:11.630Z,0.00
2023-03-31T03:22:11.631Z,0.00
2023-03-31T03:23:11.628Z,0.00
2023-03-31T03:24:11.622Z,0.00
2023-03-31T03:25:11.633Z,0.00
2023-03-31T03:26:11.617Z,0.00
2023-03-31T03:27:11.611Z,0.00
2023-03-31T03:28:11.609Z,0.00
2023-03-31T03:29:11.607Z,0.00
2023-03-31T03:30:11.613Z,0.00
2023-03-31T03:31:11.656Z,0.00
2023-03-31T03:32:11.596Z,0.00
2023-03-31T03:33:11.617Z,0.00
2023-03-31T03:34:11.598Z,0.00
2023-03-31T03:35:11.591Z,0.00
2023-03-31T03:36:11.655Z,0.00
2023-03-31T03:37:11.603Z,0.00
2023-03-31T03:38:11.589Z,0.00
2023-03-31T03:39:11.576Z,0.00
2023-03-31T03:40:11.594Z,0.00
2023-03-31T03:41:11.775Z,0.00
2023-03-31T03:42:11.568Z,0.00
2023-03-31T03:43:11.563Z,0.00
2023-03-31T03:44:11.566Z,0.00
2023-03-31T03:45:11.558Z,0.00
2023-03-31T03:46:11.600Z,0.00
2023-03-31T03:47:11.555Z,0.00
2023-03-31T03:48:11.551Z,0.00
2023-03-31T03:49:11.575Z,0.00
2023-03-31T03:50:12.561Z,0.00
2023-03-31T03:51:11.540Z,0.00
2023-03-31T03:52:11.539Z,0.00
2023-03-31T03:53:11.529Z,0.00
2023-03-31T03:54:11.526Z,0.00
2023-03-31T03:55:11.521Z,0.00
2023-03-31T03:56:11.521Z,0.00
2023-03-31T03:57:11.582Z,0.00
2023-03-31T03:58:11.512Z,0.00
2023-03-31T03:59:11.514Z,0.00
2023-03-31T04:00:11.518Z,0.00
2023-03-31T04:01:11.506Z,0.00
2023-03-31T04:02:11.520Z,0.00
2023-03-31T04:03:11.529Z,0.00
2023-03-31T04:04:11.488Z,0.00
2023-03-31T04:05:11.576Z,0.00
2023-03-31T04:06:11.484Z,0.00
2023-03-31T04:07:11.480Z,0.00
2023-03-31T04:08:11.475Z,0.00
2023-03-31T04:09:11.471Z,0.00
2023-03-31T04:10:11.469Z,0.00
2023-03-31T04:11:11.462Z,0.00
2023-03-31T04:12:11.459Z,0.00
2023-03-31T04:13:11.477Z,0.00
2023-03-31T04:14:11.454Z,0.00
2023-03-31T04:15:11.464Z,0.00
2023-03-31T04:16:11.485Z,0.00
2023-03-31T04:17:11.442Z,0.00
2023-03-31T04:18:13.345Z,0.00
2023-03-31T04:19:11.462Z,0.00
2023-03-31T04:20:11.434Z,0.00
2023-03-31T04:21:11.450Z,0.00
2023-03-31T04:22:11.427Z,0.00
2023-03-31T04:23:11.433Z,0.00
2023-03-31T04:24:11.419Z,0.00
2023-03-31T04:25:11.422Z,0.00
2023-03-31T04:26:11.417Z,0.00
2023-03-31T04:27:11.405Z,0.00
2023-03-31T04:28:11.403Z,0.00
2023-03-31T04:29:11.405Z,0.00
2023-03-31T04:30:11.396Z,0.00
2023-03-31T04:31:11.417Z,0.00
2023-03-31T04:32:11.437Z,0.00
2023-03-31T04:33:11.414Z,0.00
2023-03-31T04:34:11.388Z,0.00
2023-03-31T04:35:11.382Z,0.00
2023-03-31T04:36:11.385Z,0.00
2023-03-31T04:37:11.399Z,0.00
2023-03-31T04:38:11.370Z,0.00
2023-03-31T04:39:11.363Z,0.00
2023-03-31T04:40:11.362Z,0.00
2023-03-31T04:41:11.706Z,0.00
2023-03-31T04:42:11.361Z,0.00
2023-03-31T04:43:11.353Z,0.00
2023-03-31T04:44:11.372Z,0.00
2023-03-31T04:45:11.351Z,0.00
2023-03-31T04:46:11.408Z,0.00
2023-03-31T04:47:11.340Z,0.00
2023-03-31T04:48:11.337Z,0.00
2023-03-31T04:49:11.340Z,0.00
2023-03-31T04:50:15.241Z,0.00
2023-03-31T04:51:11.330Z,0.00
2023-03-31T04:52:11.320Z,0.00
2023-03-31T04:53:11.366Z,0.00
2023-03-31T04:54:11.314Z,0.00
2023-03-31T04:55:11.313Z,0.00
2023-03-31T04:56:11.309Z,0.00
2023-03-31T04:57:11.318Z,0.00
2023-03-31T04:58:11.299Z,0.00
2023-03-31T04:59:11.302Z,0.00
2023-03-31T05:00:11.302Z,0.00
2023-03-31T05:01:11.331Z,0.00
2023-03-31T05:02:11.305Z,0.00
2023-03-31T05:03:11.374Z,4.00
2023-03-31T05:04:11.291Z,0.00
2023-03-31T05:05:11.278Z,4.00
2023-03-31T05:06:11.300Z,0.00
2023-03-31T05:07:11.282Z,4.00
2023-03-31T05:08:11.278Z,4.00
2023-03-31T05:09:11.291Z,4.00
2023-03-31T05:10:11.267Z,4.00
2023-03-31T05:11:11.310Z,4.00
2023-03-31T05:12:11.272Z,8.00
2023-03-31T05:13:11.270Z,4.00
2023-03-31T05:14:11.260Z,4.00
2023-03-31T05:15:11.248Z,4.00
2023-03-31T05:16:11.281Z,4.00
2023-03-31T05:17:11.245Z,8.00
2023-03-31T05:18:11.253Z,8.00
2023-03-31T05:19:11.242Z,8.00
2023-03-31T05:20:11.233Z,8.00
2023-03-31T05:21:11.232Z,4.00
2023-03-31T05:22:11.225Z,4.00
2023-03-31T05:23:11.224Z,4.00
2023-03-31T05:24:11.242Z,4.00
2023-03-31T05:25:11.239Z,4.00
2023-03-31T05:26:11.239Z,4.00
2023-03-31T05:27:11.212Z,4.00
2023-03-31T05:28:11.214Z,8.00
2023-03-31T05:29:11.205Z,4.00
2023-03-31T05:30:11.199Z,8.00
2023-03-31T05:31:11.248Z,8.00
2023-03-31T05:32:11.225Z,12.00
2023-03-31T05:33:11.190Z,12.00
2023-03-31T05:34:11.187Z,16.00
2023-03-31T05:35:11.190Z,20.00
2023-03-31T05:36:11.191Z,16.00
2023-03-31T05:37:11.175Z,16.00
2023-03-31T05:38:11.170Z,16.00
2023-03-31T05:39:11.171Z,12.00
2023-03-31T05:40:11.176Z,16.00
2023-03-31T05:41:11.354Z,16.00
2023-03-31T05:42:11.160Z,12.00
2023-03-31T05:43:11.155Z,12.00
2023-03-31T05:44:11.152Z,12.00
2023-03-31T05:45:11.145Z,12.00
2023-03-31T05:46:11.669Z,8.00
2023-03-31T05:47:11.140Z,12.00
2023-03-31T05:48:11.183Z,12.00
2023-03-31T05:49:11.140Z,8.00
2023-03-31T05:50:13.332Z,12.00
2023-03-31T05:51:11.124Z,12.00
2023-03-31T05:52:11.121Z,12.00
2023-03-31T05:53:11.125Z,12.00
2023-03-31T05:54:11.113Z,12.00
2023-03-31T05:55:11.124Z,12.00
2023-03-31T05:56:11.107Z,12.00
2023-03-31T05:57:11.199Z,12.00
2023-03-31T05:58:11.102Z,12.00
2023-03-31T05:59:11.113Z,16.00
2023-03-31T06:00:11.110Z,16.00
2023-03-31T06:01:11.499Z,12.00
2023-03-31T06:02:11.108Z,16.00
2023-03-31T06:03:11.147Z,16.00
2023-03-31T06:04:11.127Z,16.00
2023-03-31T06:05:11.124Z,16.00
2023-03-31T06:06:11.082Z,16.00
2023-03-31T06:07:11.072Z,16.00
2023-03-31T06:08:11.063Z,16.00
2023-03-31T06:09:11.069Z,20.00
2023-03-31T06:10:11.163Z,24.00
2023-03-31T06:11:11.062Z,24.00
2023-03-31T06:12:11.056Z,24.00
2023-03-31T06:13:11.070Z,20.00
2023-03-31T06:14:11.046Z,20.00
2023-03-31T06:15:11.043Z,20.00
2023-03-31T06:16:11.134Z,24.00
2023-03-31T06:17:11.043Z,24.00
2023-03-31T06:18:11.057Z,28.00
2023-03-31T06:19:11.042Z,24.00
2023-03-31T06:20:24.031Z,20.00
2023-03-31T06:21:11.021Z,24.00
2023-03-31T06:22:11.023Z,20.00
2023-03-31T06:23:11.020Z,24.00
2023-03-31T06:24:11.280Z,28.00
2023-03-31T06:25:11.013Z,28.00
2023-03-31T06:26:11.002Z,32.00
2023-03-31T06:27:11.002Z,28.00
2023-03-31T06:28:11.004Z,24.00
2023-03-31T06:29:11.031Z,32.00
2023-03-31T06:30:10.990Z,28.00
2023-03-31T06:31:11.078Z,36.00
2023-03-31T06:32:11.026Z,44.00
2023-03-31T06:33:10.991Z,52.00
2023-03-31T06:34:10.972Z,48.00
2023-03-31T06:35:10.976Z,48.00
2023-03-31T06:36:10.991Z,40.00
2023-03-31T06:37:10.962Z,36.00
2023-03-31T06:38:10.956Z,36.00
2023-03-31T06:39:10.958Z,44.00
2023-03-31T06:40:10.956Z,36.00
2023-03-31T06:41:10.949Z,32.00
2023-03-31T06:42:10.943Z,28.00
2023-03-31T06:43:10.946Z,28.00
2023-03-31T06:44:10.942Z,36.00
2023-03-31T06:45:10.961Z,32.00
2023-03-31T06:46:11.433Z,32.00
2023-03-31T06:47:10.929Z,40.00
2023-03-31T06:48:10.927Z,28.00
2023-03-31T06:49:10.931Z,32.00
2023-03-31T06:50:10.924Z,24.00
2023-03-31T06:51:10.932Z,36.00
2023-03-31T06:52:11.211Z,32.00
2023-03-31T06:53:10.903Z,28.00
2023-03-31T06:54:10.899Z,36.00
2023-03-31T06:55:10.906Z,32.00
2023-03-31T06:56:10.891Z,20.00
2023-03-31T06:57:10.905Z,28.00
2023-03-31T06:58:10.887Z,28.00
2023-03-31T06:59:10.881Z,32.00
2023-03-31T07:00:10.879Z,36.00
2023-03-31T07:01:11.179Z,36.00
2023-03-31T07:02:10.913Z,44.00
2023-03-31T07:03:10.971Z,32.00
2023-03-31T07:04:10.870Z,40.00
2023-03-31T07:05:11.112Z,44.00
2023-03-31T07:06:10.859Z,44.00
2023-03-31T07:07:10.861Z,44.00
2023-03-31T07:08:10.849Z,40.00
2023-03-31T07:09:11.049Z,44.00
2023-03-31T07:10:10.843Z,36.00
2023-03-31T07:11:11.120Z,36.00
2023-03-31T07:12:10.832Z,32.00
2023-03-31T07:13:10.834Z,36.00
2023-03-31T07:14:10.823Z,40.00
2023-03-31T07:15:10.822Z,52.00
2023-03-31T07:16:10.925Z,92.00
2023-03-31T07:17:10.835Z,156.00
2023-03-31T07:18:10.829Z,116.00
2023-03-31T07:19:10.820Z,124.00
2023-03-31T07:20:10.801Z,104.00
2023-03-31T07:21:11.061Z,108.00
2023-03-31T07:22:10.796Z,172.00
2023-03-31T07:23:10.796Z,140.00
2023-03-31T07:24:10.794Z,120.00
2023-03-31T07:25:10.802Z,152.00
2023-03-31T07:26:10.782Z,148.00
2023-03-31T07:27:10.783Z,148.00
2023-03-31T07:28:10.771Z,164.00
2023-03-31T07:29:10.775Z,156.00
2023-03-31T07:30:10.763Z,140.00
2023-03-31T07:31:10.762Z,160.00
2023-03-31T07:32:10.786Z,172.00
2023-03-31T07:33:10.875Z,140.00
2023-03-31T07:34:10.752Z,132.00
2023-03-31T07:35:10.762Z,112.00
2023-03-31T07:36:13.483Z,100.00
2023-03-31T07:37:10.742Z,100.00
2023-03-31T07:38:10.746Z,112.00
2023-03-31T07:39:10.735Z,168.00
2023-03-31T07:40:10.732Z,228.00
2023-03-31T07:41:10.730Z,196.00
2023-03-31T07:42:10.722Z,184.00
2023-03-31T07:43:10.718Z,192.00
2023-03-31T07:44:10.719Z,204.00
2023-03-31T07:45:10.716Z,200.00
2023-03-31T07:46:10.925Z,200.00
2023-03-31T07:47:10.706Z,180.00
2023-03-31T07:48:10.722Z,236.00
2023-03-31T07:49:10.718Z,240.00
2023-03-31T07:50:10.691Z,304.00
2023-03-31T07:51:10.694Z,456.00
2023-03-31T07:52:10.687Z,336.00
2023-03-31T07:53:10.683Z,548.00
2023-03-31T07:54:10.684Z,632.00
2023-03-31T07:55:10.678Z,1248.00
2023-03-31T07:56:10.674Z,804.00
2023-03-31T07:57:10.738Z,3120.00
2023-03-31T07:58:10.664Z,1276.00
2023-03-31T07:59:10.669Z,764.00
2023-03-31T08:00:10.680Z,1000.00
2023-03-31T08:01:10.656Z,724.00
2023-03-31T08:02:10.681Z,492.00
2023-03-31T08:03:10.687Z,428.00
2023-03-31T08:04:12.381Z,384.00
2023-03-31T08:05:10.661Z,348.00
2023-03-31T08:06:10.682Z,280.00
2023-03-31T08:07:10.640Z,272.00
2023-03-31T08:08:10.637Z,216.00
2023-03-31T08:09:11.027Z,264.00
2023-03-31T08:10:10.623Z,256.00
2023-03-31T08:11:10.627Z,332.00
2023-03-31T08:12:10.615Z,332.00
2023-03-31T08:13:10.615Z,320.00
2023-03-31T08:14:10.610Z,372.00
2023-03-31T08:15:10.617Z,372.00
2023-03-31T08:16:10.844Z,436.00
2023-03-31T08:17:10.602Z,344.00
2023-03-31T08:18:10.621Z,344.00
2023-03-31T08:19:10.598Z,352.00
2023-03-31T08:20:10.756Z,416.00
2023-03-31T08:21:10.610Z,392.00
2023-03-31T08:22:10.588Z,320.00
2023-03-31T08:23:10.579Z,400.00
2023-03-31T08:24:10.580Z,396.00
2023-03-31T08:25:10.585Z,356.00
2023-03-31T08:26:10.579Z,396.00
2023-03-31T08:27:12.254Z,272.00
2023-03-31T08:28:10.561Z,288.00
2023-03-31T08:29:10.558Z,208.00
2023-03-31T08:30:10.597Z,256.00
2023-03-31T08:31:10.602Z,276.00
2023-03-31T08:32:10.606Z,224.00
2023-03-31T08:33:10.589Z,164.00
2023-03-31T08:34:10.546Z,168.00
2023-03-31T08:35:10.547Z,160.00
2023-03-31T08:36:10.843Z,204.00
2023-03-31T08:37:10.557Z,120.00
2023-03-31T08:38:10.531Z,116.00
2023-03-31T08:39:10.523Z,120.00
2023-03-31T08:40:10.520Z,128.00
2023-03-31T08:41:10.518Z,148.00
2023-03-31T08:42:12.201Z,144.00
2023-03-31T08:43:10.511Z,164.00
2023-03-31T08:44:10.506Z,164.00
2023-03-31T08:45:10.519Z,184.00
2023-03-31T08:46:10.711Z,216.00
2023-03-31T08:47:10.505Z,228.00
2023-03-31T08:48:10.565Z,324.00
2023-03-31T08:49:10.511Z,212.00
2023-03-31T08:50:10.486Z,256.00
2023-03-31T08:51:10.486Z,260.00
2023-03-31T08:52:10.483Z,336.00
2023-03-31T08:53:10.503Z,308.00
2023-03-31T08:54:11.955Z,448.00
2023-03-31T08:55:10.472Z,440.00
2023-03-31T08:56:10.466Z,368.00
2023-03-31T08:57:10.486Z,432.00
2023-03-31T08:58:10.466Z,360.00
2023-03-31T08:59:10.462Z,372.00
2023-03-31T09:00:10.451Z,464.00
2023-03-31T09:01:10.597Z,516.00
2023-03-31T09:02:10.559Z,520.00
2023-03-31T09:03:10.488Z,588.00
2023-03-31T09:04:12.480Z,704.00
2023-03-31T09:05:10.440Z,1040.00
2023-03-31T09:06:10.437Z,896.00
2023-03-31T09:07:10.433Z,1172.00
2023-03-31T09:08:10.428Z,1572.00
2023-03-31T09:09:10.466Z,2040.00
2023-03-31T09:10:10.421Z,2008.00
2023-03-31T09:11:10.428Z,1764.00
2023-03-31T09:12:10.414Z,1952.00
2023-03-31T09:13:10.415Z,1468.00
2023-03-31T09:14:10.410Z,1552.00
2023-03-31T09:15:10.407Z,1232.00
2023-03-31T09:16:10.672Z,1380.00
2023-03-31T09:17:10.442Z,588.00
2023-03-31T09:18:10.439Z,568.00
2023-03-31T09:19:10.397Z,468.00
2023-03-31T09:20:10.393Z,512.00
2023-03-31T09:21:10.489Z,388.00
2023-03-31T09:22:10.383Z,432.00
2023-03-31T09:23:10.392Z,396.00
2023-03-31T09:24:10.411Z,328.00
2023-03-31T09:25:10.417Z,236.00
2023-03-31T09:26:10.378Z,420.00
2023-03-31T09:27:10.370Z,428.00
2023-03-31T09:28:10.367Z,468.00
2023-03-31T09:29:10.374Z,584.00
2023-03-31T09:30:10.364Z,564.00
2023-03-31T09:31:10.392Z,476.00
2023-03-31T09:32:10.357Z,580.00
2023-03-31T09:33:10.393Z,484.00
2023-03-31T09:34:10.356Z,476.00
2023-03-31T09:35:10.356Z,480.00
2023-03-31T09:36:10.502Z,516.00
2023-03-31T09:37:10.340Z,600.00
2023-03-31T09:38:10.342Z,648.00
2023-03-31T09:39:10.336Z,512.00
2023-03-31T09:40:10.336Z,592.00
2023-03-31T09:41:10.358Z,592.00
2023-03-31T09:42:10.333Z,632.00
2023-03-31T09:43:10.325Z,796.00
2023-03-31T09:44:10.321Z,972.00
2023-03-31T09:45:10.323Z,892.00
2023-03-31T09:46:10.407Z,944.00
2023-03-31T09:47:11.680Z,776.00
2023-03-31T09:48:10.347Z,1016.00
2023-03-31T09:49:10.305Z,988.00
2023-03-31T09:50:10.305Z,1172.00
2023-03-31T09:51:10.298Z,924.00
2023-03-31T09:52:10.297Z,1064.00
2023-03-31T09:53:10.293Z,1196.00
2023-03-31T09:54:10.297Z,1224.00
2023-03-31T09:55:10.302Z,740.00
2023-03-31T09:56:10.291Z,708.00
2023-03-31T09:57:10.375Z,712.00
2023-03-31T09:58:10.282Z,708.00
2023-03-31T09:59:10.281Z,880.00
2023-03-31T10:00:10.277Z,580.00
2023-03-31T10:01:10.811Z,740.00
2023-03-31T10:02:10.278Z,384.00
2023-03-31T10:03:10.305Z,328.00
2023-03-31T10:04:10.331Z,264.00
2023-03-31T10:05:10.270Z,260.00
2023-03-31T10:06:10.268Z,212.00
2023-03-31T10:07:10.257Z,156.00
2023-03-31T10:08:10.253Z,124.00
2023-03-31T10:09:10.654Z,124.00
2023-03-31T10:10:10.244Z,156.00
2023-03-31T10:11:10.253Z,224.00
2023-03-31T10:12:10.244Z,304.00
2023-03-31T10:13:10.260Z,376.00
2023-03-31T10:14:10.239Z,472.00
2023-03-31T10:15:10.251Z,608.00
2023-03-31T10:16:10.246Z,972.00
2023-03-31T10:17:10.223Z,576.00
2023-03-31T10:18:10.243Z,660.00
2023-03-31T10:19:10.222Z,580.00
2023-03-31T10:20:10.247Z,1044.00
2023-03-31T10:21:10.223Z,1176.00
2023-03-31T10:22:10.215Z,1416.00
2023-03-31T10:23:10.205Z,1360.00
2023-03-31T10:24:10.230Z,1328.00
2023-03-31T10:25:10.198Z,1112.00
2023-03-31T10:26:10.199Z,892.00
2023-03-31T10:27:10.193Z,876.00
2023-03-31T10:28:10.196Z,700.00
2023-03-31T10:29:10.208Z,852.00
2023-03-31T10:30:10.180Z,992.00
2023-03-31T10:31:10.503Z,1064.00
2023-03-31T10:32:10.184Z,1100.00
2023-03-31T10:33:21.976Z,1176.00
2023-03-31T10:34:10.173Z,1168.00
2023-03-31T10:35:10.167Z,1112.00
2023-03-31T10:36:10.225Z,1080.00
2023-03-31T10:37:10.161Z,1016.00
2023-03-31T10:38:10.202Z,1028.00
2023-03-31T10:39:10.154Z,976.00
2023-03-31T10:40:10.156Z,888.00
2023-03-31T10:41:10.413Z,852.00
2023-03-31T10:42:10.149Z,848.00
2023-03-31T10:43:10.140Z,908.00
2023-03-31T10:44:12.256Z,1000.00
2023-03-31T10:45:10.177Z,1080.00
2023-03-31T10:46:10.161Z,1140.00
2023-03-31T10:47:10.141Z,1080.00
2023-03-31T10:48:10.186Z,1056.00
2023-03-31T10:49:10.128Z,1068.00
2023-03-31T10:50:10.128Z,1068.00
2023-03-31T10:51:11.181Z,1012.00
2023-03-31T10:52:10.118Z,884.00
2023-03-31T10:53:10.113Z,680.00
2023-03-31T10:54:10.107Z,452.00
2023-03-31T10:55:10.120Z,540.00
2023-03-31T10:56:10.105Z,332.00
2023-03-31T10:57:10.133Z,276.00
2023-03-31T10:58:10.112Z,240.00
2023-03-31T10:59:10.096Z,136.00
2023-03-31T11:00:10.093Z,96.00
2023-03-31T11:01:10.152Z,104.00
2023-03-31T11:02:10.196Z,120.00
2023-03-31T11:03:10.158Z,136.00
2023-03-31T11:04:10.087Z,152.00
2023-03-31T11:05:10.085Z,132.00
2023-03-31T11:06:10.084Z,128.00
2023-03-31T11:07:10.078Z,132.00
2023-03-31T11:08:10.084Z,124.00
2023-03-31T11:09:10.091Z,124.00
2023-03-31T11:10:10.268Z,140.00
2023-03-31T11:11:10.057Z,156.00
2023-03-31T11:12:10.060Z,172.00
2023-03-31T11:13:10.048Z,192.00
2023-03-31T11:14:10.056Z,232.00
2023-03-31T11:15:10.052Z,272.00
2023-03-31T11:16:10.171Z,296.00
2023-03-31T11:17:10.107Z,332.00
2023-03-31T11:18:10.074Z,372.00
2023-03-31T11:19:10.034Z,432.00
2023-03-31T11:20:10.039Z,480.00
2023-03-31T11:21:10.045Z,500.00
2023-03-31T11:22:10.044Z,504.00
2023-03-31T11:23:10.028Z,500.00
2023-03-31T11:24:10.040Z,492.00
2023-03-31T11:25:10.026Z,480.00
2023-03-31T11:26:10.120Z,492.00
2023-03-31T11:27:10.013Z,472.00
2023-03-31T11:28:10.006Z,452.00
2023-03-31T11:29:10.026Z,416.00
2023-03-31T11:30:10.002Z,388.00
2023-03-31T11:31:10.000Z,372.00
2023-03-31T11:32:10.018Z,372.00
2023-03-31T11:33:10.097Z,388.00
2023-03-31T11:34:09.990Z,420.00
2023-03-31T11:35:09.986Z,452.00
2023-03-31T11:36:10.206Z,484.00
2023-03-31T11:37:09.976Z,496.00
2023-03-31T11:38:09.972Z,560.00
2023-03-31T11:39:09.970Z,592.00
2023-03-31T11:40:09.981Z,584.00
2023-03-31T11:41:09.967Z,580.00
2023-03-31T11:42:09.967Z,584.00
2023-03-31T11:43:09.954Z,572.00
2023-03-31T11:44:09.965Z,568.00
2023-03-31T11:45:09.949Z,564.00
2023-03-31T11:46:10.235Z,532.00
2023-03-31T11:47:09.944Z,504.00
2023-03-31T11:48:10.001Z,488.00
2023-03-31T11:49:09.975Z,488.00
2023-03-31T11:50:09.949Z,488.00
2023-03-31T11:51:09.931Z,476.00
2023-03-31T11:52:09.949Z,464.00
2023-03-31T11:53:09.925Z,456.00
2023-03-31T11:54:09.925Z,452.00
2023-03-31T11:55:09.924Z,448.00
2023-03-31T11:56:09.941Z,452.00
2023-03-31T11:57:09.916Z,476.00
2023-03-31T11:58:09.920Z,476.00
2023-03-31T11:59:09.916Z,476.00
2023-03-31T12:00:09.919Z,480.00
2023-03-31T12:01:09.900Z,496.00
2023-03-31T12:02:09.902Z,520.00
2023-03-31T12:03:09.948Z,532.00
2023-03-31T12:04:09.962Z,552.00
2023-03-31T12:05:09.912Z,556.00
2023-03-31T12:06:10.408Z,536.00
2023-03-31T12:07:09.897Z,520.00
2023-03-31T12:08:09.883Z,528.00
2023-03-31T12:09:09.877Z,600.00
2023-03-31T12:10:09.878Z,612.00
2023-03-31T12:11:09.873Z,628.00
2023-03-31T12:12:09.869Z,620.00
2023-03-31T12:13:09.871Z,588.00
2023-03-31T12:14:09.869Z,568.00
2023-03-31T12:15:10.072Z,544.00
2023-03-31T12:16:10.251Z,504.00
2023-03-31T12:17:09.858Z,404.00
2023-03-31T12:18:09.917Z,332.00
2023-03-31T12:19:09.850Z,252.00
2023-03-31T12:20:09.854Z,208.00
2023-03-31T12:21:09.869Z,224.00
2023-03-31T12:22:09.844Z,224.00
2023-03-31T12:23:09.836Z,228.00
2023-03-31T12:24:09.835Z,304.00
2023-03-31T12:25:09.832Z,296.00
2023-03-31T12:26:09.835Z,248.00
2023-03-31T12:27:09.826Z,288.00
2023-03-31T12:28:09.825Z,268.00
2023-03-31T12:29:09.820Z,232.00
2023-03-31T12:30:09.819Z,252.00
2023-03-31T12:31:09.882Z,276.00
2023-03-31T12:32:09.813Z,272.00
2023-03-31T12:33:09.852Z,260.00
2023-03-31T12:34:09.809Z,296.00
2023-03-31T12:35:09.805Z,300.00
2023-03-31T12:36:10.122Z,320.00
2023-03-31T12:37:09.820Z,384.00
2023-03-31T12:38:09.798Z,568.00
2023-03-31T12:39:09.792Z,708.00
2023-03-31T12:40:09.792Z,712.00
2023-03-31T12:41:09.786Z,772.00
2023-03-31T12:42:09.797Z,768.00
2023-03-31T12:43:09.780Z,816.00
2023-03-31T12:44:09.779Z,836.00
2023-03-31T12:45:09.778Z,812.00
2023-03-31T12:46:09.804Z,816.00
2023-03-31T12:47:09.935Z,844.00
2023-03-31T12:48:09.773Z,808.00
2023-03-31T12:49:09.761Z,796.00
2023-03-31T12:50:09.764Z,776.00
2023-03-31T12:51:09.759Z,700.00